NKS2329 KSRQ-KCHS
Flight info
| Callsign | NKS2329 |
|---|---|
| Flight time | 1h 5m |
| Altitude | 35000 |
| Route | TIDES1 CAMJO SAV BAGGY3 |
| Aircraft | A321/M-SDE3FGHIRWY/LB1 |
Departure
| Time | 2026-04-26 20:57 |
|---|---|
| Airport | Sarasota Bradenton International Airport (KSRQ) |
Arrival
| Time | 2026-04-26 22:03 |
|---|---|
| Airport | Charleston International Airport (KCHS) |
| Time | Latitude | Longitude | Altitude | Speed | Heading |
|---|---|---|---|---|---|
| 2026-04-26 20:42 | 27.38925 | -82.55309 | 31 ft | 0 kts | 278° |
| 2026-04-26 20:49 | 27.38923 | -82.55294 | 31 ft | 4 kts | 272° |
| 2026-04-26 20:50 | 27.38925 | -82.55264 | 31 ft | 4 kts | 252° |
| 2026-04-26 20:50 | 27.38937 | -82.55238 | 31 ft | 4 kts | 225° |
| 2026-04-26 20:50 | 27.38958 | -82.55221 | 31 ft | 4 kts | 200° |
| 2026-04-26 20:50 | 27.38984 | -82.55214 | 31 ft | 4 kts | 182° |
| 2026-04-26 20:51 | 27.39005 | -82.55215 | 31 ft | 0 kts | 175° |
| 2026-04-26 20:53 | 27.38996 | -82.55211 | 31 ft | 0 kts | 161° |
| 2026-04-26 20:53 | 27.38988 | -82.55205 | 31 ft | 5 kts | 146° |
| 2026-04-26 20:53 | 27.38975 | -82.55146 | 31 ft | 9 kts | 77° |
| 2026-04-26 20:54 | 27.38995 | -82.55075 | 30 ft | 10 kts | 98° |
| 2026-04-26 20:54 | 27.38953 | -82.55012 | 30 ft | 11 kts | 136° |
| 2026-04-26 20:54 | 27.38892 | -82.54945 | 31 ft | 16 kts | 136° |
| 2026-04-26 20:54 | 27.38830 | -82.54876 | 31 ft | 21 kts | 134° |
| 2026-04-26 20:55 | 27.38734 | -82.54763 | 31 ft | 18 kts | 134° |
| 2026-04-26 20:55 | 27.38644 | -82.54660 | 31 ft | 19 kts | 134° |
| 2026-04-26 20:55 | 27.38588 | -82.54586 | 31 ft | 3 kts | 111° |
| 2026-04-26 20:56 | 27.38588 | -82.54546 | 30 ft | 11 kts | 65° |
| 2026-04-26 20:56 | 27.38689 | -82.54538 | 30 ft | 20 kts | 326° |
| 2026-04-26 20:56 | 27.38792 | -82.54650 | 30 ft | 28 kts | 314° |
| 2026-04-26 20:57 | 27.39129 | -82.55038 | 29 ft | 109 kts | 314° |
| 2026-04-26 20:57 | 27.39818 | -82.55826 | 49 ft | 170 kts | 315° |
| 2026-04-26 20:57 | 27.40629 | -82.56769 | 956 ft | 163 kts | 306° |
| 2026-04-26 20:57 | 27.41023 | -82.57945 | 1634 ft | 166 kts | 271° |
| 2026-04-26 20:58 | 27.40949 | -82.59308 | 1969 ft | 183 kts | 266° |
| 2026-04-26 20:58 | 27.40878 | -82.60797 | 2256 ft | 199 kts | 269° |
| 2026-04-26 20:58 | 27.40846 | -82.62432 | 2467 ft | 219 kts | 270° |
| 2026-04-26 20:58 | 27.40829 | -82.64149 | 3179 ft | 216 kts | 270° |
| 2026-04-26 20:59 | 27.40814 | -82.65857 | 3846 ft | 221 kts | 271° |
| 2026-04-26 20:59 | 27.40808 | -82.67606 | 4490 ft | 226 kts | 271° |
| 2026-04-26 20:59 | 27.40702 | -82.69381 | 5068 ft | 235 kts | 258° |
| 2026-04-26 20:59 | 27.40132 | -82.71204 | 5294 ft | 258 kts | 251° |
| 2026-04-26 21:00 | 27.39584 | -82.73128 | 5794 ft | 264 kts | 265° |
| 2026-04-26 21:00 | 27.39799 | -82.75155 | 6444 ft | 263 kts | 295° |
| 2026-04-26 21:00 | 27.40974 | -82.76733 | 7104 ft | 265 kts | 327° |
| 2026-04-26 21:00 | 27.42644 | -82.77619 | 7673 ft | 272 kts | 336° |
| 2026-04-26 21:01 | 27.44406 | -82.78405 | 8342 ft | 274 kts | 337° |
| 2026-04-26 21:01 | 27.46213 | -82.79127 | 9008 ft | 277 kts | 345° |
| 2026-04-26 21:01 | 27.48146 | -82.79355 | 9651 ft | 283 kts | 360° |
| 2026-04-26 21:01 | 27.50124 | -82.79240 | 10224 ft | 288 kts | 0° |
| 2026-04-26 21:02 | 27.52198 | -82.79151 | 10348 ft | 309 kts | 359° |
| 2026-04-26 21:02 | 27.54412 | -82.79080 | 10473 ft | 329 kts | 359° |
| 2026-04-26 21:02 | 27.56761 | -82.79010 | 10721 ft | 343 kts | 359° |
| 2026-04-26 21:02 | 27.59170 | -82.78940 | 11228 ft | 348 kts | 359° |
| 2026-04-26 21:03 | 27.61598 | -82.78902 | 11787 ft | 351 kts | 358° |
| 2026-04-26 21:03 | 27.64051 | -82.78890 | 12363 ft | 353 kts | 358° |
| 2026-04-26 21:03 | 27.66511 | -82.78889 | 12944 ft | 356 kts | 358° |
| 2026-04-26 21:03 | 27.69003 | -82.78889 | 13512 ft | 359 kts | 357° |
| 2026-04-26 21:04 | 27.71497 | -82.78886 | 14055 ft | 362 kts | 358° |
| 2026-04-26 21:04 | 27.74040 | -82.78878 | 14564 ft | 365 kts | 358° |
| 2026-04-26 21:04 | 27.76590 | -82.78863 | 15074 ft | 368 kts | 358° |
| 2026-04-26 21:04 | 27.79164 | -82.78843 | 15585 ft | 371 kts | 358° |
| 2026-04-26 21:05 | 27.81755 | -82.78822 | 16117 ft | 374 kts | 357° |
| 2026-04-26 21:05 | 27.84376 | -82.78803 | 16637 ft | 377 kts | 357° |
| 2026-04-26 21:05 | 27.87012 | -82.78786 | 17155 ft | 381 kts | 357° |
| 2026-04-26 21:05 | 27.89637 | -82.78770 | 17659 ft | 384 kts | 357° |
| 2026-04-26 21:06 | 27.92329 | -82.78755 | 18146 ft | 388 kts | 357° |
| 2026-04-26 21:06 | 27.95032 | -82.78737 | 18591 ft | 391 kts | 357° |
| 2026-04-26 21:06 | 27.97762 | -82.78717 | 19018 ft | 394 kts | 357° |
| 2026-04-26 21:06 | 28.00518 | -82.78696 | 19457 ft | 397 kts | 357° |
| 2026-04-26 21:07 | 28.03298 | -82.78676 | 19912 ft | 400 kts | 357° |
| 2026-04-26 21:07 | 28.06092 | -82.78661 | 20365 ft | 403 kts | 357° |
| 2026-04-26 21:07 | 28.08919 | -82.78648 | 20804 ft | 406 kts | 357° |
| 2026-04-26 21:07 | 28.11746 | -82.78630 | 21225 ft | 409 kts | 357° |
| 2026-04-26 21:08 | 28.14601 | -82.78610 | 21629 ft | 412 kts | 357° |
| 2026-04-26 21:08 | 28.17482 | -82.78447 | 22020 ft | 418 kts | 7° |
| 2026-04-26 21:08 | 28.20313 | -82.77558 | 22388 ft | 425 kts | 15° |
| 2026-04-26 21:08 | 28.23130 | -82.76494 | 22745 ft | 429 kts | 16° |
| 2026-04-26 21:09 | 28.25978 | -82.75400 | 23118 ft | 432 kts | 16° |
| 2026-04-26 21:09 | 28.28830 | -82.74294 | 23486 ft | 435 kts | 16° |
| 2026-04-26 21:09 | 28.31700 | -82.73175 | 23804 ft | 438 kts | 16° |
| 2026-04-26 21:09 | 28.34589 | -82.72055 | 24141 ft | 439 kts | 16° |
| 2026-04-26 21:10 | 28.37491 | -82.70939 | 24486 ft | 441 kts | 16° |
| 2026-04-26 21:10 | 28.40403 | -82.69822 | 24830 ft | 442 kts | 16° |
| 2026-04-26 21:10 | 28.43317 | -82.68700 | 25173 ft | 444 kts | 16° |
| 2026-04-26 21:10 | 28.46248 | -82.67571 | 25512 ft | 445 kts | 16° |
| 2026-04-26 21:11 | 28.49180 | -82.66441 | 25844 ft | 447 kts | 16° |
| 2026-04-26 21:11 | 28.52132 | -82.65307 | 26177 ft | 448 kts | 16° |
| 2026-04-26 21:11 | 28.55090 | -82.64170 | 26499 ft | 449 kts | 16° |
| 2026-04-26 21:11 | 28.58056 | -82.63025 | 26819 ft | 451 kts | 16° |
| 2026-04-26 21:12 | 28.61032 | -82.61875 | 27129 ft | 452 kts | 16° |
| 2026-04-26 21:12 | 28.64017 | -82.60720 | 27438 ft | 454 kts | 16° |
| 2026-04-26 21:12 | 28.67009 | -82.59561 | 27740 ft | 455 kts | 16° |
| 2026-04-26 21:12 | 28.70010 | -82.58396 | 28031 ft | 456 kts | 16° |
| 2026-04-26 21:13 | 28.73015 | -82.57232 | 28329 ft | 458 kts | 16° |
| 2026-04-26 21:13 | 28.76035 | -82.56060 | 28638 ft | 459 kts | 15° |
| 2026-04-26 21:13 | 28.79062 | -82.54886 | 28946 ft | 460 kts | 15° |
| 2026-04-26 21:13 | 28.82097 | -82.53707 | 29248 ft | 461 kts | 15° |
| 2026-04-26 21:14 | 28.85141 | -82.52523 | 29556 ft | 462 kts | 15° |
| 2026-04-26 21:14 | 28.88185 | -82.51339 | 29916 ft | 462 kts | 15° |
| 2026-04-26 21:14 | 28.91219 | -82.50158 | 30282 ft | 460 kts | 15° |
| 2026-04-26 21:14 | 28.94242 | -82.48979 | 30598 ft | 459 kts | 15° |
| 2026-04-26 21:15 | 28.97262 | -82.47801 | 30910 ft | 458 kts | 15° |
| 2026-04-26 21:15 | 29.00276 | -82.46628 | 31226 ft | 457 kts | 15° |
| 2026-04-26 21:15 | 29.03288 | -82.45456 | 31527 ft | 457 kts | 15° |
| 2026-04-26 21:15 | 29.06291 | -82.44285 | 31848 ft | 456 kts | 15° |
| 2026-04-26 21:16 | 29.09286 | -82.43115 | 32166 ft | 455 kts | 15° |
| 2026-04-26 21:16 | 29.12280 | -82.41945 | 32471 ft | 454 kts | 15° |
| 2026-04-26 21:16 | 29.15266 | -82.40777 | 32771 ft | 453 kts | 14° |
| 2026-04-26 21:16 | 29.18246 | -82.39615 | 33076 ft | 452 kts | 14° |
| 2026-04-26 21:17 | 29.21222 | -82.38455 | 33373 ft | 451 kts | 14° |
| 2026-04-26 21:17 | 29.24193 | -82.37299 | 33672 ft | 451 kts | 14° |
| 2026-04-26 21:17 | 29.27120 | -82.36157 | 33957 ft | 450 kts | 14° |
| 2026-04-26 21:17 | 29.30078 | -82.34997 | 34202 ft | 449 kts | 14° |
| 2026-04-26 21:18 | 29.33029 | -82.33833 | 34484 ft | 448 kts | 13° |
| 2026-04-26 21:18 | 29.35960 | -82.32676 | 34811 ft | 445 kts | 13° |
| 2026-04-26 21:18 | 29.38883 | -82.31525 | 34912 ft | 443 kts | 13° |
| 2026-04-26 21:19 | 29.44697 | -82.29242 | 34928 ft | 441 kts | 13° |
| 2026-04-26 21:19 | 29.50487 | -82.26963 | 34929 ft | 440 kts | 13° |
| 2026-04-26 21:20 | 29.56286 | -82.24673 | 34926 ft | 440 kts | 13° |
| 2026-04-26 21:20 | 29.62076 | -82.22393 | 34930 ft | 439 kts | 13° |
| 2026-04-26 21:21 | 29.67819 | -82.20121 | 34925 ft | 436 kts | 13° |
| 2026-04-26 21:21 | 29.73551 | -82.17853 | 34925 ft | 435 kts | 13° |
| 2026-04-26 21:22 | 29.79277 | -82.15588 | 34927 ft | 435 kts | 13° |
| 2026-04-26 21:22 | 29.85000 | -82.13328 | 34934 ft | 435 kts | 13° |
| 2026-04-26 21:23 | 29.93581 | -82.09925 | 34949 ft | 433 kts | 13° |
| 2026-04-26 21:23 | 29.99237 | -82.07670 | 34944 ft | 433 kts | 13° |
| 2026-04-26 21:24 | 30.04931 | -82.05398 | 34942 ft | 433 kts | 13° |
| 2026-04-26 21:24 | 30.10632 | -82.03120 | 34926 ft | 433 kts | 13° |
| 2026-04-26 21:25 | 30.16324 | -82.00851 | 34939 ft | 433 kts | 13° |
| 2026-04-26 21:25 | 30.22032 | -81.98578 | 34910 ft | 434 kts | 13° |
| 2026-04-26 21:26 | 30.27747 | -81.96303 | 34917 ft | 434 kts | 13° |
| 2026-04-26 21:26 | 30.33460 | -81.94009 | 34899 ft | 434 kts | 13° |
| 2026-04-26 21:27 | 30.39168 | -81.91699 | 34905 ft | 435 kts | 13° |
| 2026-04-26 21:27 | 30.44884 | -81.89398 | 34913 ft | 435 kts | 13° |
| 2026-04-26 21:28 | 30.50610 | -81.87104 | 34923 ft | 435 kts | 13° |
| 2026-04-26 21:28 | 30.56327 | -81.84807 | 34923 ft | 435 kts | 13° |
| 2026-04-26 21:29 | 30.62006 | -81.82521 | 34925 ft | 435 kts | 13° |
| 2026-04-26 21:29 | 30.67724 | -81.80217 | 34917 ft | 435 kts | 13° |
| 2026-04-26 21:30 | 30.73445 | -81.77903 | 34914 ft | 436 kts | 12° |
| 2026-04-26 21:30 | 30.78254 | -81.75958 | 34915 ft | 437 kts | 12° |
| 2026-04-26 21:31 | 30.84943 | -81.73251 | 34908 ft | 437 kts | 12° |
| 2026-04-26 21:31 | 30.90700 | -81.70920 | 34912 ft | 437 kts | 12° |
| 2026-04-26 21:32 | 30.96447 | -81.68590 | 34913 ft | 438 kts | 12° |
| 2026-04-26 21:32 | 31.02200 | -81.66250 | 34909 ft | 437 kts | 11° |
| 2026-04-26 21:33 | 31.07922 | -81.63916 | 34913 ft | 435 kts | 11° |
| 2026-04-26 21:33 | 31.13625 | -81.61584 | 34914 ft | 434 kts | 11° |
| 2026-04-26 21:34 | 31.19328 | -81.59255 | 34915 ft | 434 kts | 11° |
| 2026-04-26 21:34 | 31.25030 | -81.56928 | 34942 ft | 434 kts | 11° |
| 2026-04-26 21:35 | 31.30717 | -81.54599 | 34943 ft | 432 kts | 11° |
| 2026-04-26 21:35 | 31.36382 | -81.52275 | 34940 ft | 432 kts | 11° |
| 2026-04-26 21:36 | 31.41093 | -81.50348 | 34938 ft | 432 kts | 11° |
| 2026-04-26 21:36 | 31.47722 | -81.47629 | 34800 ft | 432 kts | 11° |
| 2026-04-26 21:37 | 31.50554 | -81.46462 | 34563 ft | 431 kts | 11° |
| 2026-04-26 21:37 | 31.53386 | -81.45294 | 34344 ft | 431 kts | 11° |
| 2026-04-26 21:37 | 31.56214 | -81.44128 | 34108 ft | 432 kts | 11° |
| 2026-04-26 21:37 | 31.59021 | -81.42971 | 33869 ft | 433 kts | 11° |
| 2026-04-26 21:38 | 31.61875 | -81.41800 | 33160 ft | 436 kts | 11° |
| 2026-04-26 21:38 | 31.64752 | -81.40619 | 32382 ft | 439 kts | 12° |
| 2026-04-26 21:38 | 31.67627 | -81.39432 | 31864 ft | 436 kts | 12° |
| 2026-04-26 21:38 | 31.70480 | -81.38246 | 31367 ft | 433 kts | 12° |
| 2026-04-26 21:39 | 31.73318 | -81.37069 | 30864 ft | 430 kts | 12° |
| 2026-04-26 21:39 | 31.76134 | -81.35901 | 30362 ft | 428 kts | 13° |
| 2026-04-26 21:39 | 31.78932 | -81.34738 | 29872 ft | 426 kts | 12° |
| 2026-04-26 21:39 | 31.81723 | -81.33581 | 29299 ft | 423 kts | 12° |
| 2026-04-26 21:40 | 31.84480 | -81.32438 | 28817 ft | 418 kts | 12° |
| 2026-04-26 21:40 | 31.86289 | -81.31689 | 28503 ft | 415 kts | 12° |
| 2026-04-26 21:40 | 31.89004 | -81.30567 | 28016 ft | 412 kts | 12° |
| 2026-04-26 21:40 | 31.91703 | -81.29455 | 27537 ft | 409 kts | 12° |
| 2026-04-26 21:41 | 31.94387 | -81.28348 | 27054 ft | 407 kts | 13° |
| 2026-04-26 21:41 | 31.97049 | -81.27240 | 26586 ft | 406 kts | 13° |
| 2026-04-26 21:41 | 31.99716 | -81.26126 | 26107 ft | 405 kts | 13° |
| 2026-04-26 21:41 | 32.02372 | -81.25019 | 25656 ft | 405 kts | 13° |
| 2026-04-26 21:42 | 32.05036 | -81.23911 | 25239 ft | 405 kts | 14° |
| 2026-04-26 21:42 | 32.07691 | -81.22806 | 24770 ft | 404 kts | 14° |
| 2026-04-26 21:42 | 32.10334 | -81.21704 | 24325 ft | 403 kts | 14° |
| 2026-04-26 21:42 | 32.12916 | -81.20387 | 23867 ft | 407 kts | 25° |
| 2026-04-26 21:43 | 32.15228 | -81.18441 | 23385 ft | 413 kts | 39° |
| 2026-04-26 21:43 | 32.17160 | -81.15913 | 22868 ft | 416 kts | 50° |
| 2026-04-26 21:43 | 32.18879 | -81.13179 | 22410 ft | 413 kts | 50° |
| 2026-04-26 21:43 | 32.20591 | -81.10462 | 21938 ft | 412 kts | 50° |
| 2026-04-26 21:44 | 32.22295 | -81.07760 | 21448 ft | 411 kts | 50° |
| 2026-04-26 21:44 | 32.23999 | -81.05056 | 20957 ft | 409 kts | 50° |
| 2026-04-26 21:44 | 32.25692 | -81.02368 | 20464 ft | 407 kts | 50° |
| 2026-04-26 21:44 | 32.27381 | -80.99691 | 19954 ft | 406 kts | 49° |
| 2026-04-26 21:45 | 32.29068 | -80.97019 | 19450 ft | 405 kts | 49° |
| 2026-04-26 21:45 | 32.30745 | -80.94357 | 18943 ft | 404 kts | 50° |
| 2026-04-26 21:45 | 32.32414 | -80.91694 | 18508 ft | 400 kts | 50° |
| 2026-04-26 21:45 | 32.34068 | -80.89054 | 17915 ft | 400 kts | 50° |
| 2026-04-26 21:46 | 32.35712 | -80.86429 | 17512 ft | 394 kts | 50° |
| 2026-04-26 21:46 | 32.37345 | -80.83827 | 16944 ft | 392 kts | 50° |
| 2026-04-26 21:46 | 32.38957 | -80.81252 | 16368 ft | 391 kts | 50° |
| 2026-04-26 21:46 | 32.40567 | -80.78681 | 15943 ft | 385 kts | 50° |
| 2026-04-26 21:47 | 32.42139 | -80.76168 | 15427 ft | 382 kts | 50° |
| 2026-04-26 21:47 | 32.43716 | -80.73643 | 14868 ft | 381 kts | 51° |
| 2026-04-26 21:47 | 32.45281 | -80.71135 | 14395 ft | 378 kts | 51° |
| 2026-04-26 21:47 | 32.46835 | -80.68644 | 13949 ft | 374 kts | 51° |
| 2026-04-26 21:48 | 32.48385 | -80.66160 | 13414 ft | 371 kts | 51° |
| 2026-04-26 21:48 | 32.49918 | -80.63706 | 12864 ft | 369 kts | 51° |
| 2026-04-26 21:48 | 32.51435 | -80.61277 | 12389 ft | 367 kts | 51° |
| 2026-04-26 21:48 | 32.52936 | -80.58866 | 12122 ft | 361 kts | 51° |
| 2026-04-26 21:49 | 32.54421 | -80.56472 | 11777 ft | 360 kts | 51° |
| 2026-04-26 21:49 | 32.55901 | -80.54081 | 11450 ft | 359 kts | 51° |
| 2026-04-26 21:49 | 32.57372 | -80.51704 | 11056 ft | 356 kts | 51° |
| 2026-04-26 21:49 | 32.58820 | -80.49366 | 10742 ft | 343 kts | 51° |
| 2026-04-26 21:50 | 32.60189 | -80.47153 | 10614 ft | 321 kts | 51° |
| 2026-04-26 21:50 | 32.61479 | -80.45073 | 10371 ft | 306 kts | 50° |
| 2026-04-26 21:50 | 32.62751 | -80.43087 | 9946 ft | 299 kts | 49° |
| 2026-04-26 21:50 | 32.64029 | -80.41164 | 9438 ft | 294 kts | 48° |
| 2026-04-26 21:51 | 32.65295 | -80.39287 | 9025 ft | 289 kts | 48° |
| 2026-04-26 21:51 | 32.66548 | -80.37430 | 8641 ft | 287 kts | 48° |
| 2026-04-26 21:51 | 32.67791 | -80.35584 | 8261 ft | 285 kts | 49° |
| 2026-04-26 21:51 | 32.68811 | -80.33565 | 7887 ft | 289 kts | 67° |
| 2026-04-26 21:52 | 32.69191 | -80.31223 | 7527 ft | 291 kts | 84° |
| 2026-04-26 21:52 | 32.69318 | -80.28829 | 7161 ft | 290 kts | 84° |
| 2026-04-26 21:52 | 32.69440 | -80.26449 | 6806 ft | 289 kts | 84° |
| 2026-04-26 21:52 | 32.69559 | -80.24069 | 6455 ft | 288 kts | 84° |
| 2026-04-26 21:53 | 32.69673 | -80.21724 | 6088 ft | 287 kts | 84° |
| 2026-04-26 21:53 | 32.69788 | -80.19365 | 5713 ft | 285 kts | 84° |
| 2026-04-26 21:53 | 32.69902 | -80.17022 | 5346 ft | 284 kts | 84° |
| 2026-04-26 21:53 | 32.70016 | -80.14677 | 4979 ft | 284 kts | 84° |
| 2026-04-26 21:54 | 32.70129 | -80.12342 | 4610 ft | 282 kts | 84° |
| 2026-04-26 21:54 | 32.70239 | -80.10021 | 4227 ft | 280 kts | 84° |
| 2026-04-26 21:54 | 32.70347 | -80.07723 | 3858 ft | 277 kts | 84° |
| 2026-04-26 21:54 | 32.70455 | -80.05469 | 3481 ft | 270 kts | 85° |
| 2026-04-26 21:55 | 32.70560 | -80.03284 | 3116 ft | 262 kts | 84° |
| 2026-04-26 21:55 | 32.70661 | -80.01142 | 2740 ft | 257 kts | 84° |
| 2026-04-26 21:55 | 32.70759 | -79.99040 | 2366 ft | 253 kts | 85° |
| 2026-04-26 21:55 | 32.70852 | -79.96996 | 2061 ft | 241 kts | 85° |
| 2026-04-26 21:56 | 32.70939 | -79.95084 | 2030 ft | 225 kts | 85° |
| 2026-04-26 21:56 | 32.71027 | -79.93230 | 2034 ft | 225 kts | 84° |
| 2026-04-26 21:56 | 32.71111 | -79.91437 | 2059 ft | 211 kts | 84° |
| 2026-04-26 21:56 | 32.71187 | -79.89795 | 2046 ft | 186 kts | 83° |
| 2026-04-26 21:57 | 32.71647 | -79.88514 | 2026 ft | 162 kts | 38° |
| 2026-04-26 21:57 | 32.72667 | -79.88310 | 2041 ft | 155 kts | 341° |
| 2026-04-26 21:57 | 32.73354 | -79.89262 | 2038 ft | 159 kts | 294° |
| 2026-04-26 21:57 | 32.73790 | -79.90455 | 2035 ft | 156 kts | 301° |
| 2026-04-26 21:58 | 32.74382 | -79.91513 | 2035 ft | 153 kts | 315° |
| 2026-04-26 21:58 | 32.75149 | -79.92378 | 2035 ft | 152 kts | 324° |
| 2026-04-26 21:58 | 32.75979 | -79.93128 | 2037 ft | 149 kts | 329° |
| 2026-04-26 21:58 | 32.76830 | -79.93824 | 2040 ft | 148 kts | 330° |
| 2026-04-26 21:59 | 32.77678 | -79.94488 | 2046 ft | 148 kts | 332° |
| 2026-04-26 21:59 | 32.78562 | -79.95167 | 2049 ft | 149 kts | 332° |
| 2026-04-26 21:59 | 32.79416 | -79.95817 | 2048 ft | 144 kts | 334° |
| 2026-04-26 21:59 | 32.80263 | -79.96458 | 2006 ft | 144 kts | 332° |
| 2026-04-26 22:00 | 32.81100 | -79.97091 | 1853 ft | 143 kts | 332° |
| 2026-04-26 22:00 | 32.81949 | -79.97733 | 1694 ft | 146 kts | 331° |
| 2026-04-26 22:00 | 32.82802 | -79.98377 | 1506 ft | 147 kts | 332° |
| 2026-04-26 22:00 | 32.83663 | -79.99029 | 1320 ft | 146 kts | 332° |
| 2026-04-26 22:01 | 32.84501 | -79.99663 | 1127 ft | 142 kts | 333° |
| 2026-04-26 22:01 | 32.85331 | -80.00291 | 981 ft | 141 kts | 331° |
| 2026-04-26 22:01 | 32.86169 | -80.00924 | 792 ft | 144 kts | 332° |
| 2026-04-26 22:01 | 32.87021 | -80.01569 | 599 ft | 145 kts | 333° |
| 2026-04-26 22:02 | 32.87860 | -80.02209 | 375 ft | 141 kts | 332° |
| 2026-04-26 22:02 | 32.88679 | -80.02834 | 209 ft | 142 kts | 333° |
| 2026-04-26 22:02 | 32.89509 | -80.03461 | 48 ft | 133 kts | 333° |
| 2026-04-26 22:02 | 32.90145 | -80.03926 | 55 ft | 76 kts | 326° |
| 2026-04-26 22:03 | 32.90376 | -80.04103 | 54 ft | 18 kts | 342° |
| 2026-04-26 22:03 | 32.90449 | -80.04040 | 54 ft | 11 kts | 60° |
| 2026-04-26 22:03 | 32.90477 | -80.03981 | 55 ft | 6 kts | 60° |
| 2026-04-26 22:03 | 32.90487 | -80.03940 | 58 ft | 5 kts | 94° |
| 2026-04-26 22:04 | 32.90429 | -80.03861 | 54 ft | 20 kts | 140° |
| 2026-04-26 22:04 | 32.90324 | -80.03750 | 63 ft | 19 kts | 137° |
| 2026-04-26 22:04 | 32.90232 | -80.03651 | 66 ft | 17 kts | 141° |
| 2026-04-26 22:04 | 32.90115 | -80.03580 | 55 ft | 21 kts | 157° |
| 2026-04-26 22:05 | 32.89959 | -80.03569 | 54 ft | 24 kts | 181° |
| 2026-04-26 22:05 | 32.89782 | -80.03575 | 50 ft | 26 kts | 182° |
| 2026-04-26 22:05 | 32.89592 | -80.03582 | 47 ft | 28 kts | 181° |
| 2026-04-26 22:05 | 32.89394 | -80.03588 | 47 ft | 28 kts | 181° |
| 2026-04-26 22:06 | 32.89196 | -80.03595 | 47 ft | 29 kts | 182° |
| 2026-04-26 22:06 | 32.88995 | -80.03601 | 45 ft | 30 kts | 181° |
| 2026-04-26 22:06 | 32.88801 | -80.03636 | 38 ft | 17 kts | 187° |
| 2026-04-26 22:06 | 32.88680 | -80.03663 | 39 ft | 18 kts | 198° |
| 2026-04-26 22:07 | 32.88611 | -80.03733 | 38 ft | 7 kts | 230° |
| 2026-04-26 22:07 | 32.88606 | -80.03740 | 38 ft | 0 kts | 230° |